sensor_id;sensor_type;location;lat;lon;timestamp;pressure;altitude;pressure_sealevel;temperature;humidity
16481;BME280;44634;54.110;12.138;2023-04-02T00:02:31;101577.28;;;5.27;100.00
16481;BME280;44634;54.110;12.138;2023-04-02T00:05:42;101578.19;;;6.20;100.00
16481;BME280;44634;54.110;12.138;2023-04-02T00:08:28;101592.63;;;5.66;100.00
16481;BME280;44634;54.110;12.138;2023-04-02T00:11:04;101590.44;;;5.90;100.00
16481;BME280;44634;54.110;12.138;2023-04-02T00:13:35;101591.44;;;5.72;100.00
16481;BME280;44634;54.110;12.138;2023-04-02T00:16:11;101605.66;;;6.15;100.00
16481;BME280;44634;54.110;12.138;2023-04-02T00:18:43;101603.31;;;5.79;100.00
16481;BME280;44634;54.110;12.138;2023-04-02T00:21:18;101614.78;;;5.60;100.00
16481;BME280;44634;54.110;12.138;2023-04-02T00:23:47;101614.13;;;5.88;100.00
16481;BME280;44634;54.110;12.138;2023-04-02T00:26:21;101621.41;;;5.83;100.00
16481;BME280;44634;54.110;12.138;2023-04-02T00:28:50;101626.66;;;5.52;100.00
16481;BME280;44634;54.110;12.138;2023-04-02T00:31:20;101627.84;;;6.09;100.00
16481;BME280;44634;54.110;12.138;2023-04-02T00:33:48;101626.72;;;6.29;100.00
16481;BME280;44634;54.110;12.138;2023-04-02T00:36:17;101627.94;;;6.53;100.00
16481;BME280;44634;54.110;12.138;2023-04-02T00:38:47;101629.66;;;6.39;100.00
16481;BME280;44634;54.110;12.138;2023-04-02T00:41:19;101644.25;;;6.29;100.00
16481;BME280;44634;54.110;12.138;2023-04-02T00:43:48;101636.91;;;6.04;100.00
16481;BME280;44634;54.110;12.138;2023-04-02T00:46:21;101642.06;;;6.05;100.00
16481;BME280;44634;54.110;12.138;2023-04-02T00:48:53;101645.31;;;5.94;100.00
16481;BME280;44634;54.110;12.138;2023-04-02T00:51:27;101655.59;;;5.82;100.00
16481;BME280;44634;54.110;12.138;2023-04-02T00:53:57;101648.00;;;5.93;100.00
16481;BME280;44634;54.110;12.138;2023-04-02T00:56:29;101653.06;;;6.28;100.00
16481;BME280;44634;54.110;12.138;2023-04-02T00:58:57;101653.28;;;5.60;100.00
16481;BME280;44634;54.110;12.138;2023-04-02T01:01:33;101652.22;;;6.27;100.00
16481;BME280;44634;54.110;12.138;2023-04-02T01:04:03;101652.88;;;6.31;100.00
16481;BME280;44634;54.110;12.138;2023-04-02T01:06:33;101650.47;;;6.12;100.00
16481;BME280;44634;54.110;12.138;2023-04-02T01:09:13;101667.16;;;6.11;100.00
16481;BME280;44634;54.110;12.138;2023-04-02T01:12:06;101657.75;;;6.22;100.00
16481;BME280;44634;54.110;12.138;2023-04-02T01:14:43;101670.50;;;6.29;100.00
16481;BME280;44634;54.110;12.138;2023-04-02T01:17:27;101664.84;;;6.66;100.00
16481;BME280;44634;54.110;12.138;2023-04-02T01:22:56;101680.75;;;5.86;100.00
16481;BME280;44634;54.110;12.138;2023-04-02T01:25:33;101681.38;;;5.58;100.00
16481;BME280;44634;54.110;12.138;2023-04-02T01:28:08;101687.50;;;5.74;100.00
16481;BME280;44634;54.110;12.138;2023-04-02T01:30:39;101693.47;;;6.25;100.00
16481;BME280;44634;54.110;12.138;2023-04-02T01:33:07;101700.66;;;5.90;100.00
16481;BME280;44634;54.110;12.138;2023-04-02T01:35:38;101703.16;;;6.09;100.00
16481;BME280;44634;54.110;12.138;2023-04-02T01:38:10;101703.06;;;6.72;100.00
16481;BME280;44634;54.110;12.138;2023-04-02T01:40:44;101705.28;;;6.48;100.00
16481;BME280;44634;54.110;12.138;2023-04-02T01:43:18;101694.56;;;6.05;100.00
16481;BME280;44634;54.110;12.138;2023-04-02T01:45:50;101702.03;;;5.97;100.00
16481;BME280;44634;54.110;12.138;2023-04-02T01:48:22;101705.06;;;6.05;100.00
16481;BME280;44634;54.110;12.138;2023-04-02T01:50:54;101717.13;;;6.09;100.00
16481;BME280;44634;54.110;12.138;2023-04-02T01:53:24;101717.97;;;5.94;100.00
16481;BME280;44634;54.110;12.138;2023-04-02T01:55:56;101718.53;;;6.46;100.00
16481;BME280;44634;54.110;12.138;2023-04-02T01:58:27;101721.88;;;6.64;100.00
16481;BME280;44634;54.110;12.138;2023-04-02T02:00:58;101721.75;;;6.51;100.00
16481;BME280;44634;54.110;12.138;2023-04-02T02:03:27;101739.69;;;5.63;100.00
16481;BME280;44634;54.110;12.138;2023-04-02T02:05:56;101725.22;;;6.36;100.00
16481;BME280;44634;54.110;12.138;2023-04-02T02:08:33;101736.09;;;6.14;100.00
16481;BME280;44634;54.110;12.138;2023-04-02T02:11:04;101736.72;;;6.49;100.00
16481;BME280;44634;54.110;12.138;2023-04-02T02:13:32;101750.50;;;6.39;100.00
16481;BME280;44634;54.110;12.138;2023-04-02T02:16:02;101751.75;;;5.67;100.00
16481;BME280;44634;54.110;12.138;2023-04-02T02:18:31;101739.91;;;6.09;100.00
16481;BME280;44634;54.110;12.138;2023-04-02T02:21:00;101753.34;;;6.50;100.00
16481;BME280;44634;54.110;12.138;2023-04-02T02:23:31;101754.94;;;6.68;100.00
16481;BME280;44634;54.110;12.138;2023-04-02T02:25:59;101760.69;;;6.75;100.00
16481;BME280;44634;54.110;12.138;2023-04-02T02:28:30;101766.16;;;6.40;100.00
16481;BME280;44634;54.110;12.138;2023-04-02T02:31:04;101762.66;;;6.71;100.00
16481;BME280;44634;54.110;12.138;2023-04-02T02:33:35;101772.50;;;6.36;100.00
16481;BME280;44634;54.110;12.138;2023-04-02T02:36:12;101776.72;;;6.70;100.00
16481;BME280;44634;54.110;12.138;2023-04-02T02:38:50;101774.84;;;6.72;100.00
16481;BME280;44634;54.110;12.138;2023-04-02T02:41:24;101786.75;;;6.48;100.00
16481;BME280;44634;54.110;12.138;2023-04-02T02:43:59;101782.84;;;6.23;100.00
16481;BME280;44634;54.110;12.138;2023-04-02T02:46:31;101798.25;;;6.77;100.00
16481;BME280;44634;54.110;12.138;2023-04-02T02:49:01;101809.72;;;6.60;100.00
16481;BME280;44634;54.110;12.138;2023-04-02T02:51:39;101811.75;;;6.23;100.00
16481;BME280;44634;54.110;12.138;2023-04-02T02:54:07;101810.25;;;6.51;100.00
16481;BME280;44634;54.110;12.138;2023-04-02T02:56:39;101817.69;;;6.59;100.00
16481;BME280;44634;54.110;12.138;2023-04-02T02:59:09;101818.50;;;6.91;100.00
16481;BME280;44634;54.110;12.138;2023-04-02T03:01:40;101826.44;;;7.05;100.00
16481;BME280;44634;54.110;12.138;2023-04-02T03:04:10;101827.91;;;6.32;100.00
16481;BME280;44634;54.110;12.138;2023-04-02T03:06:38;101826.97;;;6.33;100.00
16481;BME280;44634;54.110;12.138;2023-04-02T03:09:15;101821.91;;;6.45;100.00
16481;BME280;44634;54.110;12.138;2023-04-02T03:11:49;101831.25;;;6.51;100.00
16481;BME280;44634;54.110;12.138;2023-04-02T03:14:22;101832.41;;;6.77;100.00
16481;BME280;44634;54.110;12.138;2023-04-02T03:16:58;101838.84;;;6.24;100.00
16481;BME280;44634;54.110;12.138;2023-04-02T03:19:30;101846.84;;;6.70;100.00
16481;BME280;44634;54.110;12.138;2023-04-02T03:22:05;101855.88;;;6.48;100.00
16481;BME280;44634;54.110;12.138;2023-04-02T03:24:37;101850.06;;;6.59;100.00
16481;BME280;44634;54.110;12.138;2023-04-02T03:27:12;101861.41;;;6.91;100.00
16481;BME280;44634;54.110;12.138;2023-04-02T03:29:45;101870.13;;;6.76;100.00
16481;BME280;44634;54.110;12.138;2023-04-02T03:32:21;101867.09;;;6.99;100.00
16481;BME280;44634;54.110;12.138;2023-04-02T03:34:53;101869.09;;;7.26;100.00
16481;BME280;44634;54.110;12.138;2023-04-02T03:37:25;101884.09;;;7.08;100.00
16481;BME280;44634;54.110;12.138;2023-04-02T03:39:58;101881.84;;;6.70;100.00
16481;BME280;44634;54.110;12.138;2023-04-02T03:42:29;101893.44;;;6.50;100.00
16481;BME280;44634;54.110;12.138;2023-04-02T03:45:06;101880.31;;;6.98;100.00
16481;BME280;44634;54.110;12.138;2023-04-02T03:47:42;101893.28;;;7.46;100.00
16481;BME280;44634;54.110;12.138;2023-04-02T03:50:16;101888.47;;;7.09;100.00
16481;BME280;44634;54.110;12.138;2023-04-02T03:52:46;101899.56;;;7.14;100.00
16481;BME280;44634;54.110;12.138;2023-04-02T03:55:18;101900.06;;;7.05;100.00
16481;BME280;44634;54.110;12.138;2023-04-02T03:57:52;101907.34;;;6.37;100.00
16481;BME280;44634;54.110;12.138;2023-04-02T04:00:26;101911.50;;;6.56;100.00
16481;BME280;44634;54.110;12.138;2023-04-02T04:03:04;101907.78;;;7.08;100.00
16481;BME280;44634;54.110;12.138;2023-04-02T04:05:42;101907.38;;;6.84;100.00
16481;BME280;44634;54.110;12.138;2023-04-02T04:08:16;101915.84;;;6.73;100.00
16481;BME280;44634;54.110;12.138;2023-04-02T04:10:49;101923.91;;;6.70;100.00
16481;BME280;44634;54.110;12.138;2023-04-02T04:13:21;101925.25;;;6.93;100.00
16481;BME280;44634;54.110;12.138;2023-04-02T04:15:53;101928.16;;;7.04;100.00
16481;BME280;44634;54.110;12.138;2023-04-02T04:18:31;101925.09;;;7.12;100.00
16481;BME280;44634;54.110;12.138;2023-04-02T04:21:05;101933.56;;;6.54;100.00
16481;BME280;44634;54.110;12.138;2023-04-02T04:23:38;101943.66;;;6.93;100.00
16481;BME280;44634;54.110;12.138;2023-04-02T04:26:20;101949.00;;;6.92;100.00
16481;BME280;44634;54.110;12.138;2023-04-02T04:28:55;101956.22;;;7.04;100.00
16481;BME280;44634;54.110;12.138;2023-04-02T04:31:35;101954.13;;;6.95;100.00
16481;BME280;44634;54.110;12.138;2023-04-02T04:34:10;101958.75;;;7.53;100.00
16481;BME280;44634;54.110;12.138;2023-04-02T04:36:43;101969.44;;;7.34;100.00
16481;BME280;44634;54.110;12.138;2023-04-02T04:39:17;101963.75;;;7.87;100.00
16481;BME280;44634;54.110;12.138;2023-04-02T04:41:50;101968.94;;;7.27;100.00
16481;BME280;44634;54.110;12.138;2023-04-02T04:44:21;101972.94;;;7.19;100.00
16481;BME280;44634;54.110;12.138;2023-04-02T04:46:54;101979.63;;;7.08;100.00
16481;BME280;44634;54.110;12.138;2023-04-02T04:49:29;101977.31;;;7.50;100.00
16481;BME280;44634;54.110;12.138;2023-04-02T04:52:04;101988.13;;;7.13;100.00
16481;BME280;44634;54.110;12.138;2023-04-02T04:54:36;101991.25;;;7.04;100.00
16481;BME280;44634;54.110;12.138;2023-04-02T04:57:05;101997.31;;;6.73;100.00
16481;BME280;44634;54.110;12.138;2023-04-02T04:59:48;102010.91;;;6.48;100.00
16481;BME280;44634;54.110;12.138;2023-04-02T05:02:23;102015.78;;;7.05;100.00
16481;BME280;44634;54.110;12.138;2023-04-02T05:04:54;102021.31;;;6.67;100.00
16481;BME280;44634;54.110;12.138;2023-04-02T05:07:26;102024.88;;;7.15;100.00
16481;BME280;44634;54.110;12.138;2023-04-02T05:09:57;102031.19;;;6.62;100.00
16481;BME280;44634;54.110;12.138;2023-04-02T05:12:31;102034.94;;;7.07;100.00
16481;BME280;44634;54.110;12.138;2023-04-02T05:15:09;102034.06;;;7.39;100.00
16481;BME280;44634;54.110;12.138;2023-04-02T05:17:46;102047.91;;;6.94;100.00
16481;BME280;44634;54.110;12.138;2023-04-02T05:20:23;102050.38;;;6.64;100.00
16481;BME280;44634;54.110;12.138;2023-04-02T05:22:55;102054.16;;;6.92;100.00
16481;BME280;44634;54.110;12.138;2023-04-02T05:25:25;102062.13;;;7.55;100.00
16481;BME280;44634;54.110;12.138;2023-04-02T05:27:58;102075.47;;;6.87;100.00
16481;BME280;44634;54.110;12.138;2023-04-02T05:30:37;102070.22;;;7.03;100.00
16481;BME280;44634;54.110;12.138;2023-04-02T05:33:17;102075.41;;;7.04;100.00
16481;BME280;44634;54.110;12.138;2023-04-02T05:35:54;102080.81;;;6.85;100.00
16481;BME280;44634;54.110;12.138;2023-04-02T05:38:26;102082.66;;;7.16;100.00
16481;BME280;44634;54.110;12.138;2023-04-02T05:40:59;102088.66;;;7.19;100.00
16481;BME280;44634;54.110;12.138;2023-04-02T05:43:29;102087.66;;;7.21;100.00
16481;BME280;44634;54.110;12.138;2023-04-02T05:46:01;102095.56;;;6.88;100.00
16481;BME280;44634;54.110;12.138;2023-04-02T05:48:33;102095.19;;;6.78;100.00
16481;BME280;44634;54.110;12.138;2023-04-02T05:51:06;102101.78;;;6.35;100.00
16481;BME280;44634;54.110;12.138;2023-04-02T05:53:37;102106.31;;;6.14;100.00
16481;BME280;44634;54.110;12.138;2023-04-02T05:56:11;102111.13;;;6.75;100.00
16481;BME280;44634;54.110;12.138;2023-04-02T05:58:45;102106.44;;;7.46;100.00
16481;BME280;44634;54.110;12.138;2023-04-02T06:01:20;102113.81;;;7.24;100.00
16481;BME280;44634;54.110;12.138;2023-04-02T06:03:55;102120.88;;;7.39;100.00
16481;BME280;44634;54.110;12.138;2023-04-02T06:06:42;102126.22;;;7.38;100.00
16481;BME280;44634;54.110;12.138;2023-04-02T06:09:14;102133.75;;;7.28;100.00
16481;BME280;44634;54.110;12.138;2023-04-02T06:11:48;102135.75;;;7.23;100.00
16481;BME280;44634;54.110;12.138;2023-04-02T06:14:17;102138.91;;;7.14;100.00
16481;BME280;44634;54.110;12.138;2023-04-02T06:16:45;102137.53;;;6.90;100.00
16481;BME280;44634;54.110;12.138;2023-04-02T06:19:16;102140.94;;;7.09;100.00
16481;BME280;44634;54.110;12.138;2023-04-02T06:21:47;102140.66;;;7.62;100.00
16481;BME280;44634;54.110;12.138;2023-04-02T06:24:20;102146.94;;;7.60;100.00
16481;BME280;44634;54.110;12.138;2023-04-02T06:26:53;102148.22;;;7.53;100.00
16481;BME280;44634;54.110;12.138;2023-04-02T06:29:27;102148.63;;;7.45;100.00
16481;BME280;44634;54.110;12.138;2023-04-02T06:32:00;102161.16;;;7.07;100.00
16481;BME280;44634;54.110;12.138;2023-04-02T06:34:29;102155.63;;;7.13;100.00
16481;BME280;44634;54.110;12.138;2023-04-02T06:37:01;102160.09;;;7.44;100.00
16481;BME280;44634;54.110;12.138;2023-04-02T06:39:30;102173.16;;;7.45;100.00
16481;BME280;44634;54.110;12.138;2023-04-02T06:42:00;102178.03;;;7.03;100.00
16481;BME280;44634;54.110;12.138;2023-04-02T06:44:32;102165.81;;;7.99;100.00
16481;BME280;44634;54.110;12.138;2023-04-02T06:47:03;102175.16;;;8.05;100.00
16481;BME280;44634;54.110;12.138;2023-04-02T06:49:35;102180.56;;;7.22;100.00
16481;BME280;44634;54.110;12.138;2023-04-02T06:52:11;102180.78;;;7.67;100.00
16481;BME280;44634;54.110;12.138;2023-04-02T06:54:40;102188.31;;;7.25;100.00
16481;BME280;44634;54.110;12.138;2023-04-02T06:57:08;102188.19;;;7.43;100.00
16481;BME280;44634;54.110;12.138;2023-04-02T06:59:38;102188.03;;;7.62;100.00
16481;BME280;44634;54.110;12.138;2023-04-02T07:02:22;102194.88;;;7.98;100.00
16481;BME280;44634;54.110;12.138;2023-04-02T07:05:02;102205.56;;;7.95;100.00
16481;BME280;44634;54.110;12.138;2023-04-02T07:07:32;102207.28;;;8.27;100.00
16481;BME280;44634;54.110;12.138;2023-04-02T07:10:00;102210.81;;;7.95;100.00
16481;BME280;44634;54.110;12.138;2023-04-02T07:12:28;102221.28;;;7.47;100.00
16481;BME280;44634;54.110;12.138;2023-04-02T07:14:55;102218.91;;;7.43;100.00
16481;BME280;44634;54.110;12.138;2023-04-02T07:17:23;102227.75;;;7.42;100.00
16481;BME280;44634;54.110;12.138;2023-04-02T07:19:51;102223.94;;;7.96;100.00
16481;BME280;44634;54.110;12.138;2023-04-02T07:22:19;102238.94;;;7.12;100.00
16481;BME280;44634;54.110;12.138;2023-04-02T07:24:48;102228.59;;;7.91;100.00
16481;BME280;44634;54.110;12.138;2023-04-02T07:27:16;102233.00;;;7.42;100.00
16481;BME280;44634;54.110;12.138;2023-04-02T07:29:44;102237.69;;;6.85;100.00
16481;BME280;44634;54.110;12.138;2023-04-02T07:32:12;102243.81;;;7.53;100.00
16481;BME280;44634;54.110;12.138;2023-04-02T07:34:40;102250.44;;;6.93;100.00
16481;BME280;44634;54.110;12.138;2023-04-02T07:37:12;102243.13;;;7.98;100.00
16481;BME280;44634;54.110;12.138;2023-04-02T07:39:40;102256.47;;;7.29;100.00
16481;BME280;44634;54.110;12.138;2023-04-02T07:42:09;102253.75;;;7.64;100.00
16481;BME280;44634;54.110;12.138;2023-04-02T07:44:37;102271.44;;;7.62;100.00
16481;BME280;44634;54.110;12.138;2023-04-02T07:47:05;102263.28;;;8.31;100.00
16481;BME280;44634;54.110;12.138;2023-04-02T07:49:33;102255.78;;;8.23;100.00
16481;BME280;44634;54.110;12.138;2023-04-02T07:52:02;102265.66;;;8.04;100.00
16481;BME280;44634;54.110;12.138;2023-04-02T07:54:30;102269.19;;;7.87;100.00
16481;BME280;44634;54.110;12.138;2023-04-02T07:56:57;102266.19;;;8.11;100.00
16481;BME280;44634;54.110;12.138;2023-04-02T07:59:27;102277.31;;;8.31;100.00
16481;BME280;44634;54.110;12.138;2023-04-02T08:01:54;102288.25;;;8.08;100.00
16481;BME280;44634;54.110;12.138;2023-04-02T08:04:23;102280.81;;;8.93;100.00
16481;BME280;44634;54.110;12.138;2023-04-02T08:06:51;102288.03;;;9.06;100.00
16481;BME280;44634;54.110;12.138;2023-04-02T08:09:19;102288.53;;;9.12;100.00
16481;BME280;44634;54.110;12.138;2023-04-02T08:11:47;102289.09;;;9.62;100.00
16481;BME280;44634;54.110;12.138;2023-04-02T08:14:15;102290.88;;;10.04;100.00
16481;BME280;44634;54.110;12.138;2023-04-02T08:16:46;102287.97;;;9.21;100.00
16481;BME280;44634;54.110;12.138;2023-04-02T08:19:15;102301.59;;;9.00;100.00
16481;BME280;44634;54.110;12.138;2023-04-02T08:21:42;102305.88;;;9.16;100.00
16481;BME280;44634;54.110;12.138;2023-04-02T08:24:10;102309.19;;;9.78;100.00
16481;BME280;44634;54.110;12.138;2023-04-02T08:26:38;102316.47;;;9.89;100.00
16481;BME280;44634;54.110;12.138;2023-04-02T08:29:06;102315.97;;;10.25;99.65
16481;BME280;44634;54.110;12.138;2023-04-02T08:31:34;102314.75;;;10.17;100.00
16481;BME280;44634;54.110;12.138;2023-04-02T08:34:03;102320.47;;;10.52;98.48
16481;BME280;44634;54.110;12.138;2023-04-02T08:36:34;102326.19;;;10.17;100.00
16481;BME280;44634;54.110;12.138;2023-04-02T08:39:03;102326.84;;;10.06;100.00
16481;BME280;44634;54.110;12.138;2023-04-02T08:41:36;102334.22;;;10.30;100.00
16481;BME280;44634;54.110;12.138;2023-04-02T08:44:19;102341.00;;;9.91;100.00
16481;BME280;44634;54.110;12.138;2023-04-02T08:46:51;102347.78;;;9.95;100.00
16481;BME280;44634;54.110;12.138;2023-04-02T08:49:28;102341.47;;;10.26;100.00
16481;BME280;44634;54.110;12.138;2023-04-02T08:51:56;102343.34;;;11.07;91.25
16481;BME280;44634;54.110;12.138;2023-04-02T08:54:26;102343.31;;;10.53;93.04
16481;BME280;44634;54.110;12.138;2023-04-02T08:56:57;102350.03;;;10.58;85.80
16481;BME280;44634;54.110;12.138;2023-04-02T08:59:32;102353.66;;;11.24;81.74
16481;BME280;44634;54.110;12.138;2023-04-02T09:02:22;102356.13;;;10.32;90.75
16481;BME280;44634;54.110;12.138;2023-04-02T09:04:57;102374.50;;;10.05;100.00
16481;BME280;44634;54.110;12.138;2023-04-02T09:07:27;102374.13;;;9.52;100.00
16481;BME280;44634;54.110;12.138;2023-04-02T09:09:54;102373.66;;;10.04;99.94
16481;BME280;44634;54.110;12.138;2023-04-02T09:12:25;102375.81;;;9.98;94.55
16481;BME280;44634;54.110;12.138;2023-04-02T09:15:02;102381.69;;;10.46;92.39
16481;BME280;44634;54.110;12.138;2023-04-02T09:17:32;102384.09;;;11.04;78.68
16481;BME280;44634;54.110;12.138;2023-04-02T09:20:22;102379.13;;;11.39;76.73
16481;BME280;44634;54.110;12.138;2023-04-02T09:22:52;102378.88;;;12.45;66.88
16481;BME280;44634;54.110;12.138;2023-04-02T09:25:23;102382.00;;;12.63;63.31
16481;BME280;44634;54.110;12.138;2023-04-02T09:27:54;102385.28;;;12.05;64.11
16481;BME280;44634;54.110;12.138;2023-04-02T09:30:28;102400.34;;;11.52;67.77
16481;BME280;44634;54.110;12.138;2023-04-02T09:33:00;102382.72;;;12.65;65.93
16481;BME280;44634;54.110;12.138;2023-04-02T09:35:35;102407.47;;;10.56;75.81
16481;BME280;44634;54.110;12.138;2023-04-02T09:38:22;102401.22;;;10.98;84.13
16481;BME280;44634;54.110;12.138;2023-04-02T09:40:56;102404.88;;;12.15;69.72
16481;BME280;44634;54.110;12.138;2023-04-02T09:43:26;102411.66;;;11.94;69.04
16481;BME280;44634;54.110;12.138;2023-04-02T09:45:57;102400.09;;;12.45;68.27
16481;BME280;44634;54.110;12.138;2023-04-02T09:48:27;102406.38;;;12.68;66.09
16481;BME280;44634;54.110;12.138;2023-04-02T09:51:11;102411.44;;;13.21;57.71
16481;BME280;44634;54.110;12.138;2023-04-02T09:53:40;102401.16;;;13.97;55.37
16481;BME280;44634;54.110;12.138;2023-04-02T09:56:12;102407.19;;;13.77;55.41
16481;BME280;44634;54.110;12.138;2023-04-02T09:58:41;102416.03;;;14.00;51.78
16481;BME280;44634;54.110;12.138;2023-04-02T10:01:27;102423.00;;;12.83;54.34
16481;BME280;44634;54.110;12.138;2023-04-02T10:03:56;102434.03;;;11.89;63.80
16481;BME280;44634;54.110;12.138;2023-04-02T10:06:28;102440.06;;;12.42;68.75
16481;BME280;44634;54.110;12.138;2023-04-02T10:08:56;102429.91;;;12.86;59.82
16481;BME280;44634;54.110;12.138;2023-04-02T10:11:27;102429.38;;;12.93;62.36
16481;BME280;44634;54.110;12.138;2023-04-02T10:14:15;102430.38;;;13.40;59.50
16481;BME280;44634;54.110;12.138;2023-04-02T10:16:49;102430.47;;;12.78;61.83
16481;BME280;44634;54.110;12.138;2023-04-02T10:19:25;102431.72;;;13.22;57.96
16481;BME280;44634;54.110;12.138;2023-04-02T10:21:57;102436.63;;;13.63;56.80
16481;BME280;44634;54.110;12.138;2023-04-02T10:24:27;102455.69;;;12.47;56.21
16481;BME280;44634;54.110;12.138;2023-04-02T10:27:04;102449.16;;;12.76;51.35
16481;BME280;44634;54.110;12.138;2023-04-02T10:29:53;102459.06;;;12.98;49.23
16481;BME280;44634;54.110;12.138;2023-04-02T10:32:31;102448.75;;;13.19;51.23
16481;BME280;44634;54.110;12.138;2023-04-02T10:35:03;102447.00;;;14.12;49.27
16481;BME280;44634;54.110;12.138;2023-04-02T10:37:49;102451.44;;;13.89;48.42
16481;BME280;44634;54.110;12.138;2023-04-02T10:40:26;102454.63;;;14.17;48.06
16481;BME280;44634;54.110;12.138;2023-04-02T10:43:09;102462.09;;;13.89;45.01
16481;BME280;44634;54.110;12.138;2023-04-02T10:45:44;102457.72;;;16.28;41.15
16481;BME280;44634;54.110;12.138;2023-04-02T10:48:19;102465.66;;;15.45;43.26
16481;BME280;44634;54.110;12.138;2023-04-02T10:50:57;102472.53;;;13.45;52.49
16481;BME280;44634;54.110;12.138;2023-04-02T10:53:32;102476.97;;;13.68;53.69
16481;BME280;44634;54.110;12.138;2023-04-02T10:56:06;102495.78;;;12.55;55.12
16481;BME280;44634;54.110;12.138;2023-04-02T10:58:39;102497.72;;;11.48;67.33
16481;BME280;44634;54.110;12.138;2023-04-02T11:01:14;102509.78;;;12.82;57.76
16481;BME280;44634;54.110;12.138;2023-04-02T11:03:45;102507.69;;;12.49;53.12
16481;BME280;44634;54.110;12.138;2023-04-02T11:06:17;102530.38;;;11.35;58.59
16481;BME280;44634;54.110;12.138;2023-04-02T11:08:50;102520.13;;;13.24;48.68
16481;BME280;44634;54.110;12.138;2023-04-02T11:11:20;102524.34;;;13.26;54.59
16481;BME280;44634;54.110;12.138;2023-04-02T11:13:55;102499.31;;;15.46;50.13
16481;BME280;44634;54.110;12.138;2023-04-02T11:16:24;102525.16;;;13.39;49.35
16481;BME280;44634;54.110;12.138;2023-04-02T11:19:21;102534.19;;;11.84;84.23
16481;BME280;44634;54.110;12.138;2023-04-02T11:21:51;102532.00;;;13.31;73.38
16481;BME280;44634;54.110;12.138;2023-04-02T11:24:42;102533.03;;;14.35;50.81
16481;BME280;44634;54.110;12.138;2023-04-02T11:27:17;102528.25;;;14.74;46.78
16481;BME280;44634;54.110;12.138;2023-04-02T11:29:49;102536.50;;;14.82;50.59
16481;BME280;44634;54.110;12.138;2023-04-02T11:32:35;102554.53;;;13.13;66.47
16481;BME280;44634;54.110;12.138;2023-04-02T11:35:26;102552.38;;;13.67;66.85
16481;BME280;44634;54.110;12.138;2023-04-02T11:41:10;102564.78;;;11.49;81.50
16481;BME280;44634;54.110;12.138;2023-04-02T11:43:59;102556.69;;;14.16;58.63
16481;BME280;44634;54.110;12.138;2023-04-02T11:46:42;102564.75;;;13.31;58.64
16481;BME280;44634;54.110;12.138;2023-04-02T11:49:36;102581.97;;;10.86;88.59
16481;BME280;44634;54.110;12.138;2023-04-02T11:52:20;102582.06;;;10.70;97.62
16481;BME280;44634;54.110;12.138;2023-04-02T11:54:57;102572.44;;;12.60;90.11
16481;BME280;44634;54.110;12.138;2023-04-02T11:57:39;102574.44;;;12.56;75.44
16481;BME280;44634;54.110;12.138;2023-04-02T12:00:20;102582.41;;;12.04;89.83
16481;BME280;44634;54.110;12.138;2023-04-02T12:02:59;102571.63;;;13.34;83.31
16481;BME280;44634;54.110;12.138;2023-04-02T12:05:33;102577.78;;;14.41;61.57
16481;BME280;44634;54.110;12.138;2023-04-02T12:08:21;102583.44;;;13.17;66.73
16481;BME280;44634;54.110;12.138;2023-04-02T12:10:54;102597.28;;;12.06;80.30
16481;BME280;44634;54.110;12.138;2023-04-02T12:13:49;102600.88;;;12.05;89.89
16481;BME280;44634;54.110;12.138;2023-04-02T12:16:18;102609.19;;;12.26;84.44
16481;BME280;44634;54.110;12.138;2023-04-02T12:18:47;102608.47;;;11.97;79.65
16481;BME280;44634;54.110;12.138;2023-04-02T12:21:21;102608.91;;;12.43;85.46
16481;BME280;44634;54.110;12.138;2023-04-02T12:23:51;102614.16;;;13.58;71.45
16481;BME280;44634;54.110;12.138;2023-04-02T12:26:26;102618.59;;;13.08;73.16
16481;BME280;44634;54.110;12.138;2023-04-02T12:29:21;102628.13;;;13.85;71.46
16481;BME280;44634;54.110;12.138;2023-04-02T12:31:50;102610.97;;;14.95;57.39
16481;BME280;44634;54.110;12.138;2023-04-02T12:34:20;102616.28;;;14.13;64.38
16481;BME280;44634;54.110;12.138;2023-04-02T12:36:53;102642.88;;;11.84;76.92
16481;BME280;44634;54.110;12.138;2023-04-02T12:39:22;102626.69;;;13.68;63.15
16481;BME280;44634;54.110;12.138;2023-04-02T12:41:54;102637.94;;;12.59;65.23
16481;BME280;44634;54.110;12.138;2023-04-02T12:44:25;102638.38;;;13.17;65.15
16481;BME280;44634;54.110;12.138;2023-04-02T12:46:53;102641.03;;;13.29;66.52
16481;BME280;44634;54.110;12.138;2023-04-02T12:49:32;102627.06;;;14.93;57.73
16481;BME280;44634;54.110;12.138;2023-04-02T12:52:02;102650.22;;;11.38;76.39
16481;BME280;44634;54.110;12.138;2023-04-02T12:54:35;102655.75;;;11.90;76.40
16481;BME280;44634;54.110;12.138;2023-04-02T12:57:21;102649.81;;;13.43;66.26
16481;BME280;44634;54.110;12.138;2023-04-02T12:59:50;102658.22;;;13.49;60.84
16481;BME280;44634;54.110;12.138;2023-04-02T13:02:20;102661.53;;;13.02;64.63
16481;BME280;44634;54.110;12.138;2023-04-02T13:04:49;102671.09;;;12.39;68.64
16481;BME280;44634;54.110;12.138;2023-04-02T13:07:20;102665.13;;;13.52;62.80
16481;BME280;44634;54.110;12.138;2023-04-02T13:09:49;102647.53;;;15.37;54.08
16481;BME280;44634;54.110;12.138;2023-04-02T13:12:25;102653.72;;;14.93;53.89
16481;BME280;44634;54.110;12.138;2023-04-02T13:14:56;102676.50;;;11.41;82.81
16481;BME280;44634;54.110;12.138;2023-04-02T13:17:39;102679.09;;;11.28;87.12
16481;BME280;44634;54.110;12.138;2023-04-02T13:20:30;102676.00;;;12.45;74.71